Terminal Aerodrome Forecast
Issued by NWS Twin Cities, MN

Home | Current Version | Previous Version | Graphics & Text | Print | Product List | Glossary On
Versions: 1 2 3 4 5 6 7 8 9 10 11 12 13 14 15 16 17 18 19 20 21 22 23 24 25 26 27
000
FTUS43 KMPX 241100
TAFMSP
TAF
KMSP 241122Z 2412/2518 14008KT P6SM BKN250
     FM241600 16008KT P6SM SCT015 BKN025
     FM241900 21008KT P6SM SCT025 BKN250
     FM250300 26006KT P6SM SCT250
     FM251200 30008KT P6SM SCT250=

USA.gov is the U.S. government's official web portal to all federal, state and local government web resources and services.